createdAt,value
2023-04-25T00:02:37.975Z,99.90
2023-04-25T00:05:25.860Z,99.90
2023-04-25T00:08:13.641Z,99.90
2023-04-25T00:11:03.008Z,99.90
2023-04-25T00:13:51.753Z,99.90
2023-04-25T00:16:40.182Z,99.90
2023-04-25T00:19:29.463Z,99.90
2023-04-25T00:22:16.767Z,99.90
2023-04-25T00:25:04.523Z,99.90
2023-04-25T00:27:51.830Z,99.90
2023-04-25T00:30:38.965Z,99.90
2023-04-25T00:33:26.258Z,99.90
2023-04-25T00:36:13.322Z,99.90
2023-04-25T00:39:00.914Z,99.90
2023-04-25T00:41:48.579Z,99.90
2023-04-25T00:44:37.296Z,99.90
2023-04-25T00:47:25.509Z,99.90
2023-04-25T00:50:13.793Z,99.90
2023-04-25T00:53:01.187Z,99.90
2023-04-25T00:55:50.830Z,99.90
2023-04-25T00:58:39.130Z,99.90
2023-04-25T01:01:26.575Z,99.90
2023-04-25T01:04:15.770Z,99.90
2023-04-25T01:07:03.710Z,99.90
2023-04-25T01:09:52.531Z,99.90
2023-04-25T01:12:39.833Z,99.90
2023-04-25T01:15:26.906Z,99.90
2023-04-25T01:18:14.418Z,99.90
2023-04-25T01:21:12.294Z,99.90
2023-04-25T01:24:00.253Z,99.90
2023-04-25T01:26:49.850Z,99.90
2023-04-25T01:29:37.393Z,99.90
2023-04-25T01:32:25.514Z,99.90
2023-04-25T01:35:13.748Z,99.90
2023-04-25T01:38:01.668Z,99.90
2023-04-25T01:40:52.489Z,99.90
2023-04-25T01:43:39.680Z,99.90
2023-04-25T01:46:27.455Z,99.90
2023-04-25T01:49:14.726Z,99.90
2023-04-25T01:52:01.801Z,99.90
2023-04-25T01:54:49.396Z,99.90
2023-04-25T01:57:36.688Z,99.90
2023-04-25T02:00:24.560Z,99.90
2023-04-25T02:03:11.840Z,99.90
2023-04-25T02:05:59.007Z,99.90
2023-04-25T02:08:46.361Z,99.90
2023-04-25T02:11:33.853Z,99.90
2023-04-25T02:14:20.958Z,99.90
2023-04-25T02:17:08.441Z,99.90
2023-04-25T02:19:55.635Z,99.90
2023-04-25T02:22:43.418Z,99.90
2023-04-25T02:25:30.993Z,99.90
2023-04-25T02:28:18.146Z,99.90
2023-04-25T02:31:05.817Z,99.90
2023-04-25T02:33:53.347Z,99.90
2023-04-25T02:36:40.873Z,99.90
2023-04-25T02:39:28.221Z,99.90
2023-04-25T02:42:15.393Z,99.90
2023-04-25T02:45:03.436Z,99.90
2023-04-25T02:47:50.822Z,99.90
2023-04-25T02:50:38.124Z,99.90
2023-04-25T02:53:25.538Z,99.90
2023-04-25T02:56:13.175Z,99.90
2023-04-25T02:59:00.994Z,99.90
2023-04-25T03:01:48.193Z,99.90
2023-04-25T03:04:35.620Z,99.90
2023-04-25T03:07:22.760Z,99.90
2023-04-25T03:10:10.371Z,99.90
2023-04-25T03:12:57.730Z,99.90
2023-04-25T03:15:45.577Z,99.90
2023-04-25T03:18:32.596Z,99.90
2023-04-25T03:21:20.035Z,99.90
2023-04-25T03:24:07.714Z,99.90
2023-04-25T03:26:55.540Z,99.90
2023-04-25T03:29:44.510Z,99.90
2023-04-25T03:32:32.035Z,99.90
2023-04-25T03:35:19.656Z,99.90
2023-04-25T03:38:06.724Z,99.90
2023-04-25T03:40:54.189Z,99.90
2023-04-25T03:43:41.328Z,99.90
2023-04-25T03:46:28.885Z,99.90
2023-04-25T03:49:19.091Z,99.90
2023-04-25T03:52:05.437Z,99.90
2023-04-25T03:54:52.798Z,99.90
2023-04-25T03:57:40.138Z,99.90
2023-04-25T04:00:28.085Z,99.90
2023-04-25T04:03:15.896Z,99.90
2023-04-25T04:06:05.071Z,99.90
2023-04-25T04:08:52.569Z,99.90
2023-04-25T04:11:40.266Z,99.90
2023-04-25T04:14:27.883Z,99.90
2023-04-25T04:17:15.670Z,99.90
2023-04-25T04:20:04.504Z,99.90
2023-04-25T04:22:51.794Z,99.90
2023-04-25T04:25:40.622Z,99.90
2023-04-25T04:28:27.672Z,99.90
2023-04-25T04:31:16.509Z,99.90
2023-04-25T04:34:04.383Z,99.90
2023-04-25T04:36:51.393Z,99.90
2023-04-25T04:39:38.914Z,99.90
2023-04-25T04:42:26.268Z,99.90
2023-04-25T04:45:13.893Z,99.90
2023-04-25T04:48:01.245Z,99.90
2023-04-25T04:50:48.851Z,99.90
2023-04-25T04:53:36.095Z,99.90
2023-04-25T04:56:24.171Z,99.90
2023-04-25T04:59:11.309Z,99.90
2023-04-25T05:01:58.908Z,99.90
2023-04-25T05:04:46.678Z,99.90
2023-04-25T05:07:34.144Z,99.90
2023-04-25T05:10:21.711Z,99.90
2023-04-25T05:13:09.035Z,99.90
2023-04-25T05:15:56.447Z,99.90
2023-04-25T05:18:44.117Z,99.90
2023-04-25T05:21:32.256Z,99.90
2023-04-25T05:24:19.711Z,99.90
2023-04-25T05:27:07.247Z,99.90
2023-04-25T05:29:54.581Z,99.90
2023-04-25T05:32:42.464Z,99.90
2023-04-25T05:35:29.700Z,99.90
2023-04-25T05:38:16.823Z,99.90
2023-04-25T05:41:03.968Z,99.90
2023-04-25T05:43:51.978Z,99.90
2023-04-25T05:46:40.074Z,99.90
2023-04-25T05:49:27.630Z,99.90
2023-04-25T05:52:16.108Z,99.90
2023-04-25T05:55:03.554Z,99.90
2023-04-25T05:57:51.578Z,99.90
2023-04-25T06:00:39.222Z,99.90
2023-04-25T06:03:27.149Z,99.90
2023-04-25T06:06:17.305Z,99.90
2023-04-25T06:09:04.756Z,99.90
2023-04-25T06:11:51.840Z,99.90
2023-04-25T06:14:39.723Z,99.90
2023-04-25T06:17:27.001Z,99.90
2023-04-25T06:20:14.320Z,99.90
2023-04-25T06:23:01.502Z,99.90
2023-04-25T06:25:48.890Z,99.90
2023-04-25T06:28:36.229Z,99.90
2023-04-25T06:31:23.360Z,99.90
2023-04-25T06:34:11.164Z,99.90
2023-04-25T06:36:58.697Z,99.90
2023-04-25T06:39:45.983Z,99.90
2023-04-25T06:42:33.342Z,99.90
2023-04-25T06:45:20.613Z,99.90
2023-04-25T06:48:08.137Z,99.90
2023-04-25T06:50:55.574Z,99.90
2023-04-25T06:53:42.749Z,99.90
2023-04-25T06:56:31.858Z,99.90
2023-04-25T06:59:18.841Z,99.90
2023-04-25T07:02:06.959Z,99.90
2023-04-25T07:04:54.585Z,99.90
2023-04-25T07:07:42.542Z,99.90
2023-04-25T07:10:29.604Z,99.90
2023-04-25T07:13:17.170Z,99.90
2023-04-25T07:16:05.844Z,99.90
2023-04-25T07:18:56.455Z,99.90
2023-04-25T07:21:44.004Z,99.90
2023-04-25T07:24:31.133Z,99.90
2023-04-25T07:27:18.481Z,99.90
2023-04-25T07:30:06.213Z,99.90
2023-04-25T07:32:53.502Z,99.90
2023-04-25T07:35:40.752Z,99.90
2023-04-25T07:38:27.929Z,99.90
2023-04-25T07:41:15.220Z,99.90
2023-04-25T07:44:02.831Z,99.90
2023-04-25T07:46:50.012Z,99.90
2023-04-25T07:49:37.730Z,99.90
2023-04-25T07:52:24.999Z,99.90
2023-04-25T07:55:12.285Z,99.90
2023-04-25T07:57:59.348Z,99.90
2023-04-25T08:00:46.451Z,99.90
2023-04-25T08:03:35.475Z,99.90
2023-04-25T08:06:23.169Z,99.90
2023-04-25T08:09:10.585Z,99.90
2023-04-25T08:11:57.814Z,99.90
2023-04-25T08:14:45.193Z,99.90
2023-04-25T08:17:32.518Z,99.90
2023-04-25T08:20:20.205Z,99.90
2023-04-25T08:23:07.347Z,99.90
2023-04-25T08:25:55.109Z,99.90
2023-04-25T08:28:42.128Z,99.90
2023-04-25T08:31:29.218Z,99.90
2023-04-25T08:34:16.420Z,99.90
2023-04-25T08:37:05.277Z,99.90
2023-04-25T08:39:53.903Z,99.90
2023-04-25T08:42:46.024Z,99.90
2023-04-25T08:45:35.150Z,99.90
2023-04-25T08:57:52.173Z,99.90
2023-04-25T09:00:39.315Z,99.90
2023-04-25T09:03:26.618Z,99.90
2023-04-25T09:06:14.348Z,99.90
2023-04-25T09:09:09.083Z,99.90
2023-04-25T09:11:56.949Z,99.90
2023-04-25T09:14:44.792Z,99.90
2023-04-25T09:17:32.137Z,99.90
2023-04-25T09:20:19.369Z,99.90
2023-04-25T09:23:08.112Z,99.90
2023-04-25T09:25:55.921Z,99.90
2023-04-25T09:28:46.376Z,99.90
2023-04-25T09:31:35.739Z,99.90
2023-04-25T09:34:22.925Z,99.90
2023-04-25T09:37:11.928Z,99.90
2023-04-25T09:40:05.478Z,99.90
2023-04-25T09:42:52.784Z,99.90
2023-04-25T09:45:46.771Z,99.90
2023-04-25T09:48:34.184Z,99.60
2023-04-25T09:51:21.424Z,99.90
2023-04-25T09:54:08.858Z,99.90
2023-04-25T09:56:56.415Z,99.90
2023-04-25T09:59:48.866Z,98.30
2023-04-25T10:02:37.558Z,98.90
2023-04-25T10:05:26.106Z,99.90
2023-04-25T10:08:15.364Z,99.20
2023-04-25T10:11:03.990Z,99.40
2023-04-25T10:13:52.314Z,99.00
2023-04-25T10:16:42.199Z,98.80
2023-04-25T10:19:30.469Z,99.20
2023-04-25T10:22:20.949Z,99.50
2023-04-25T10:25:09.424Z,99.70
2023-04-25T10:27:56.469Z,99.90
2023-04-25T10:31:04.424Z,99.90
2023-04-25T10:33:51.814Z,99.90
2023-04-25T10:36:39.223Z,99.90
2023-04-25T10:39:29.114Z,99.90
2023-04-25T10:42:16.954Z,99.90
2023-04-25T10:45:08.841Z,99.90
2023-04-25T10:47:56.854Z,99.90
2023-04-25T10:50:44.335Z,99.90
2023-04-25T10:53:34.613Z,99.90
2023-04-25T10:56:22.773Z,99.90
2023-04-25T10:59:12.309Z,99.90
2023-04-25T11:01:59.704Z,99.90
2023-04-25T11:04:46.982Z,99.90
2023-04-25T11:10:45.921Z,99.90
2023-04-25T11:13:33.870Z,99.90
2023-04-25T11:16:27.300Z,99.90
2023-04-25T11:19:10.474Z,99.90
2023-04-25T11:21:58.685Z,99.90
2023-04-25T11:24:47.790Z,99.90
2023-04-25T11:27:35.818Z,99.90
2023-04-25T11:30:24.711Z,99.90
2023-04-25T11:33:12.012Z,99.90
2023-04-25T11:35:59.679Z,99.90
2023-04-25T11:38:46.712Z,97.70
2023-04-25T11:41:34.282Z,99.00
2023-04-25T11:44:22.634Z,99.00
2023-04-25T11:47:11.697Z,95.90
2023-04-25T11:50:00.919Z,95.70
2023-04-25T11:52:49.713Z,96.40
2023-04-25T11:55:37.341Z,96.10
2023-04-25T11:58:25.384Z,95.90
2023-04-25T12:01:12.865Z,97.00
2023-04-25T12:04:01.153Z,97.60
2023-04-25T12:06:49.922Z,97.00
2023-04-25T12:09:36.775Z,97.30
2023-04-25T12:12:25.380Z,98.20
2023-04-25T12:15:21.105Z,98.50
2023-04-25T12:18:08.933Z,98.40
2023-04-25T12:20:56.526Z,99.60
2023-04-25T12:23:43.822Z,99.90
2023-04-25T12:26:34.506Z,99.90
2023-04-25T12:29:29.436Z,99.90
2023-04-25T12:32:14.661Z,99.90
2023-04-25T12:35:02.089Z,99.90
2023-04-25T12:37:49.713Z,99.40
2023-04-25T12:40:37.135Z,99.70
2023-04-25T12:43:24.268Z,97.30
2023-04-25T12:46:11.517Z,97.20
2023-04-25T12:49:08.337Z,96.90
2023-04-25T12:51:47.730Z,96.30
2023-04-25T12:54:35.021Z,97.60
2023-04-25T12:57:22.137Z,95.70
2023-04-25T13:00:11.688Z,97.30
2023-04-25T13:02:59.171Z,95.10
2023-04-25T13:05:46.856Z,95.50
2023-04-25T13:08:33.997Z,93.40
2023-04-25T13:11:21.244Z,93.10
2023-04-25T13:14:08.770Z,96.50
2023-04-25T13:16:56.011Z,93.00
2023-04-25T13:19:43.482Z,92.70
2023-04-25T13:22:31.024Z,95.40
2023-04-25T13:25:18.302Z,92.90
2023-04-25T13:28:06.040Z,94.00
2023-04-25T13:30:53.341Z,94.00
2023-04-25T13:33:40.506Z,92.10
2023-04-25T13:36:28.706Z,93.60
2023-04-25T13:39:16.228Z,93.10
2023-04-25T13:42:04.084Z,93.30
2023-04-25T13:44:51.095Z,93.60
2023-04-25T13:47:38.497Z,91.00
2023-04-25T13:50:26.128Z,92.20
2023-04-25T13:53:13.962Z,91.60
2023-04-25T13:56:01.293Z,93.00
2023-04-25T13:58:48.720Z,91.00
2023-04-25T14:01:36.764Z,93.30
2023-04-25T14:04:24.176Z,90.40
2023-04-25T14:07:11.906Z,89.50
2023-04-25T14:09:59.436Z,87.00
2023-04-25T14:12:46.528Z,82.40
2023-04-25T14:15:36.442Z,85.70
2023-04-25T14:18:23.690Z,85.60
2023-04-25T14:21:11.698Z,88.00
2023-04-25T14:24:00.709Z,85.30
2023-04-25T14:26:47.970Z,86.40
2023-04-25T14:29:36.554Z,85.00
2023-04-25T14:32:23.854Z,87.00
2023-04-25T14:35:11.174Z,90.80
2023-04-25T14:37:58.829Z,84.90
2023-04-25T14:40:46.155Z,90.50
2023-04-25T14:43:33.205Z,85.40
2023-04-25T14:46:21.507Z,87.60
2023-04-25T14:49:09.207Z,85.10
2023-04-25T14:51:56.485Z,86.20
2023-04-25T14:54:43.868Z,87.10
2023-04-25T14:57:31.398Z,89.20
2023-04-25T15:00:20.425Z,90.40
2023-04-25T15:03:08.838Z,88.60
2023-04-25T15:05:57.418Z,90.60
2023-04-25T15:08:44.881Z,90.60
2023-04-25T15:11:31.957Z,90.60
2023-04-25T15:14:19.639Z,90.40
2023-04-25T15:17:07.417Z,91.20
2023-04-25T15:19:56.431Z,91.20
2023-04-25T15:22:47.299Z,91.40
2023-04-25T15:25:34.563Z,90.90
2023-04-25T15:28:22.169Z,91.60
2023-04-25T15:31:09.771Z,90.80
2023-04-25T15:33:57.232Z,91.10
2023-04-25T15:36:44.569Z,87.90
2023-04-25T15:39:32.514Z,89.60
2023-04-25T15:42:21.224Z,85.30
2023-04-25T15:45:09.760Z,87.80
2023-04-25T15:47:57.960Z,87.00
2023-04-25T15:50:45.015Z,82.40
2023-04-25T15:53:32.802Z,84.90
2023-04-25T15:56:20.115Z,82.30
2023-04-25T15:59:07.552Z,79.50
2023-04-25T16:01:54.893Z,81.70
2023-04-25T16:04:42.670Z,82.80
2023-04-25T16:07:30.180Z,80.90
2023-04-25T16:10:22.979Z,80.60
2023-04-25T16:13:10.597Z,82.50
2023-04-25T16:15:58.168Z,79.60
2023-04-25T16:18:45.509Z,79.00
2023-04-25T16:21:32.859Z,78.60
2023-04-25T16:24:20.459Z,82.30
2023-04-25T16:27:09.245Z,77.70
2023-04-25T16:29:56.576Z,77.60
2023-04-25T16:32:45.559Z,80.70
2023-04-25T16:35:33.421Z,80.40
2023-04-25T16:38:21.632Z,82.90
2023-04-25T16:41:09.028Z,84.50
2023-04-25T16:43:56.217Z,83.60
2023-04-25T16:46:43.679Z,82.30
2023-04-25T16:49:30.831Z,84.60
2023-04-25T16:52:18.071Z,83.10
2023-04-25T16:55:06.353Z,85.20
2023-04-25T16:57:54.034Z,84.90
2023-04-25T17:00:41.716Z,83.60
2023-04-25T17:03:28.936Z,87.00
2023-04-25T17:06:17.351Z,87.70
2023-04-25T17:09:05.985Z,85.80
2023-04-25T17:11:53.110Z,84.30
2023-04-25T17:14:40.515Z,83.70
2023-04-25T17:17:28.144Z,85.50
2023-04-25T17:20:15.305Z,82.40
2023-04-25T17:23:02.945Z,85.00
2023-04-25T17:25:50.110Z,83.90
2023-04-25T17:28:36.955Z,83.30
2023-04-25T17:31:24.294Z,84.90
2023-04-25T17:34:13.348Z,84.10
2023-04-25T17:37:00.628Z,83.50
2023-04-25T17:39:48.125Z,85.60
2023-04-25T17:42:36.462Z,85.50
2023-04-25T17:45:23.521Z,86.80
2023-04-25T17:48:11.012Z,86.80
2023-04-25T17:50:58.764Z,87.10
2023-04-25T17:53:46.119Z,88.90
2023-04-25T17:56:37.711Z,87.40
2023-04-25T17:59:24.870Z,87.80
2023-04-25T18:02:12.585Z,90.00
2023-04-25T18:04:59.679Z,90.70
2023-04-25T18:07:50.157Z,90.30
2023-04-25T18:10:38.831Z,90.70
2023-04-25T18:13:26.960Z,91.10
2023-04-25T18:16:15.844Z,91.00
2023-04-25T18:19:06.121Z,91.20
2023-04-25T18:21:58.458Z,91.80
2023-04-25T18:24:46.393Z,92.10
2023-04-25T18:27:33.346Z,93.10
2023-04-25T18:30:20.678Z,92.40
2023-04-25T18:33:07.809Z,93.30
2023-04-25T18:35:59.336Z,93.30
2023-04-25T18:38:44.138Z,94.30
2023-04-25T18:41:52.140Z,94.20
2023-04-25T18:44:20.493Z,95.40
2023-04-25T18:47:12.882Z,95.70
2023-04-25T18:50:00.204Z,98.10
2023-04-25T18:52:47.631Z,97.20
2023-04-25T18:55:35.394Z,96.50
2023-04-25T18:58:22.829Z,97.40
2023-04-25T19:01:10.525Z,98.00
2023-04-25T19:03:58.321Z,98.40
2023-04-25T19:06:46.391Z,99.20
2023-04-25T19:09:33.498Z,99.30
2023-04-25T19:12:21.753Z,99.90
2023-04-25T19:15:09.768Z,99.90
2023-04-25T19:17:57.483Z,99.90
2023-04-25T19:20:44.773Z,99.90
2023-04-25T19:23:32.315Z,99.90
2023-04-25T19:26:19.635Z,99.90
2023-04-25T19:29:15.134Z,99.90
2023-04-25T19:32:03.450Z,99.90
2023-04-25T19:34:50.736Z,99.90
2023-04-25T19:37:38.263Z,99.90
2023-04-25T19:40:26.162Z,99.90
2023-04-25T19:43:13.380Z,99.90
2023-04-25T19:46:01.260Z,99.90
2023-04-25T19:48:48.307Z,99.90
2023-04-25T19:51:36.602Z,99.90
2023-04-25T19:54:23.940Z,99.90
2023-04-25T19:57:11.172Z,99.90
2023-04-25T19:59:58.626Z,99.90
2023-04-25T20:02:46.764Z,99.90
2023-04-25T20:05:34.106Z,99.90
2023-04-25T20:08:21.881Z,99.90
2023-04-25T20:11:09.306Z,99.90
2023-04-25T20:13:58.370Z,99.90
2023-04-25T20:16:46.725Z,99.90
2023-04-25T20:19:33.914Z,99.90
2023-04-25T20:22:21.095Z,99.90
2023-04-25T20:25:09.829Z,99.90
2023-04-25T20:27:57.262Z,99.90
2023-04-25T20:30:45.250Z,99.90
2023-04-25T20:33:32.807Z,99.90
2023-04-25T20:36:20.234Z,99.90
2023-04-25T20:39:07.854Z,99.90
2023-04-25T20:41:56.966Z,99.90
2023-04-25T20:44:44.176Z,99.90
2023-04-25T20:47:31.382Z,99.90
2023-04-25T20:50:18.414Z,99.90
2023-04-25T20:53:06.668Z,99.90
2023-04-25T20:55:53.986Z,99.90
2023-04-25T20:58:41.313Z,99.90
2023-04-25T21:01:29.003Z,99.90
2023-04-25T21:04:18.051Z,99.90
2023-04-25T21:07:05.096Z,99.90
2023-04-25T21:09:52.449Z,99.90
2023-04-25T21:12:40.752Z,99.90
2023-04-25T21:15:30.647Z,99.90
2023-04-25T21:18:18.040Z,99.90
2023-04-25T21:21:06.641Z,99.90
2023-04-25T21:23:53.776Z,99.90
2023-04-25T21:26:40.896Z,99.90
2023-04-25T21:29:28.675Z,99.90
2023-04-25T21:32:17.509Z,99.90
2023-04-25T21:35:05.255Z,99.90
2023-04-25T21:37:52.877Z,99.90
2023-04-25T21:40:41.739Z,99.90
2023-04-25T21:43:28.840Z,99.90
2023-04-25T21:46:23.525Z,99.90
2023-04-25T21:49:04.775Z,99.90
2023-04-25T21:51:53.249Z,99.90
2023-04-25T21:54:40.610Z,99.90
2023-04-25T21:57:27.840Z,99.90
2023-04-25T22:00:21.915Z,99.90
2023-04-25T22:03:08.989Z,99.90
2023-04-25T22:05:56.592Z,99.90
2023-04-25T22:08:43.840Z,99.90
2023-04-25T22:11:31.094Z,99.90
2023-04-25T22:14:18.138Z,99.90
2023-04-25T22:17:05.762Z,99.90
2023-04-25T22:19:53.007Z,99.90
2023-04-25T22:22:44.122Z,99.90
2023-04-25T22:25:31.793Z,99.90
2023-04-25T22:28:21.363Z,99.90
2023-04-25T22:31:08.571Z,99.90
2023-04-25T22:33:55.967Z,99.90
2023-04-25T22:36:43.748Z,99.90
2023-04-25T22:39:31.199Z,99.90
2023-04-25T22:42:18.333Z,99.90
2023-04-25T22:45:07.916Z,99.90
2023-04-25T22:47:55.188Z,99.90
2023-04-25T22:50:43.351Z,99.90
2023-04-25T22:53:32.019Z,99.90
2023-04-25T22:56:19.076Z,99.90
2023-04-25T22:59:06.457Z,99.90
2023-04-25T23:01:55.679Z,99.90
2023-04-25T23:04:42.894Z,99.90
2023-04-25T23:07:31.490Z,99.90
2023-04-25T23:10:19.254Z,99.90
2023-04-25T23:13:06.340Z,99.90
2023-04-25T23:15:53.392Z,99.90
2023-04-25T23:18:41.159Z,99.90
2023-04-25T23:21:28.661Z,99.90
2023-04-25T23:24:16.160Z,99.90
2023-04-25T23:27:03.630Z,99.90
2023-04-25T23:29:55.251Z,99.90
2023-04-25T23:32:42.890Z,99.90
2023-04-25T23:35:30.335Z,99.90
2023-04-25T23:38:17.975Z,99.90
2023-04-25T23:41:05.559Z,99.90
2023-04-25T23:43:52.910Z,99.90
2023-04-25T23:46:40.927Z,99.90
2023-04-25T23:49:28.137Z,99.90
2023-04-25T23:52:15.748Z,99.90
2023-04-25T23:55:05.057Z,99.90
2023-04-25T23:57:52.376Z,99.90
